Main page
METAR-TAF:

METAR-TAF

Airports :

Da Nang International Airport

Da Nang, Vietnam

latitude: 16-02N, longitude: 108-11E, elevation: 7 m

Current weather observation

The report was made 35 minutes ago, at 20:30 UTC
Wind 1 kt from variable directions
Temperature 22°C
Humidity 94%
Pressure 1015 hPa
Visibility: 6000 m
Few clouds at a height of 1300 ft
Broken clouds at a height of 5000 ft

METAR: VVDN 152030Z VRB01KT 6000 FEW013 BKN050 22/21 Q1015 NOSIG

Time: 04:05 (21:05 UTC)

Forecast

The report was made 4 hours and 5 minutes ago, at 17:00 UTC
Forecast valid from 15 at 18 UTC to 16 at 18 UTC
Wind 4 kt from the West/Southwest
Visibility: 7000 m
Few clouds at a height of 1300 ft
Scattered clouds at a height of 6000 ft
Becoming
from 15 at 19 UTC to 15 at 20 UTC
Visibility: 4000 m
mist
Becoming
from 16 at 00 UTC to 16 at 01 UTC
Visibility: 6000 m

TAF: VVDN 151700Z 1518/1618 24004KT 7000 FEW013 SCT060 BECMG 1519/1520 4000 BR BECMG 1600/1601 6000 NSW

Weather observations and forecasts of more than 4000 airports (METAR and TAF reports).

The available stations are represented by yellow and red dots on the map.

Hover mouse over dot to see the name of the station.

Then click to see weather observations and forecasts.

To change the map : click on the green buttons with a black cross to zoom in, on the green button with a dash to zoom out, or on the green arrows for adjacent maps.


METAR-TAF: